createdAt,value
2019-04-27T00:04:20.002Z,10.00
2019-04-27T00:10:36.524Z,10.00
2019-04-27T00:16:51.603Z,10.00
2019-04-27T00:23:00.759Z,9.90
2019-04-27T00:29:05.726Z,9.90
2019-04-27T00:35:13.649Z,9.80
2019-04-27T00:41:20.544Z,9.80
2019-04-27T00:47:25.173Z,9.70
2019-04-27T00:53:29.739Z,9.60
2019-04-27T00:59:48.089Z,9.50
2019-04-27T01:05:53.158Z,9.50
2019-04-27T01:11:57.770Z,9.40
2019-04-27T01:18:11.957Z,9.30
2019-04-27T01:24:08.999Z,9.30
2019-04-27T01:30:18.933Z,9.30
2019-04-27T01:36:23.539Z,9.20
2019-04-27T01:42:29.469Z,9.10
2019-04-27T01:48:34.247Z,9.00
2019-04-27T01:54:40.822Z,8.90
2019-04-27T02:00:47.240Z,8.90
2019-04-27T02:06:53.441Z,9.00
2019-04-27T02:12:58.697Z,9.10
2019-04-27T02:19:03.389Z,9.10
2019-04-27T02:25:09.355Z,9.10
2019-04-27T02:31:13.683Z,9.00
2019-04-27T02:37:20.090Z,9.00
2019-04-27T02:43:29.609Z,8.90
2019-04-27T02:49:34.413Z,8.80
2019-04-27T02:55:39.818Z,8.60
2019-04-27T03:01:53.541Z,8.50
2019-04-27T03:07:59.725Z,8.40
2019-04-27T03:14:32.586Z,8.20
2019-04-27T03:20:36.076Z,8.10
2019-04-27T03:26:42.440Z,8.00
2019-04-27T03:32:54.687Z,8.00
2019-04-27T03:38:53.474Z,8.00
2019-04-27T03:45:00.356Z,8.10
2019-04-27T03:51:10.082Z,8.10
2019-04-27T03:57:22.540Z,8.20
2019-04-27T04:03:29.567Z,8.10
2019-04-27T04:09:40.910Z,8.10
2019-04-27T04:15:52.184Z,8.10
2019-04-27T04:21:57.083Z,8.20
2019-04-27T04:28:01.632Z,8.10
2019-04-27T04:34:06.605Z,8.10
2019-04-27T04:40:11.486Z,8.10
2019-04-27T04:46:16.069Z,8.20
2019-04-27T04:52:20.691Z,8.40
2019-04-27T04:58:25.247Z,8.40
2019-04-27T05:04:29.821Z,8.60
2019-04-27T05:10:34.434Z,8.70
2019-04-27T05:16:39.163Z,8.80
2019-04-27T05:22:43.918Z,8.90
2019-04-27T05:28:49.205Z,9.00
2019-04-27T05:34:53.807Z,9.00
2019-04-27T05:40:58.729Z,9.10
2019-04-27T05:47:05.351Z,9.30
2019-04-27T05:53:11.242Z,9.40
2019-04-27T05:59:15.884Z,9.50
2019-04-27T06:05:22.814Z,9.70
2019-04-27T06:11:28.434Z,9.90
2019-04-27T06:17:33.245Z,9.90
2019-04-27T06:23:39.051Z,9.70
2019-04-27T06:29:43.723Z,9.80
2019-04-27T06:35:49.557Z,10.10
2019-04-27T06:41:54.223Z,10.50
2019-04-27T06:47:59.531Z,10.90
2019-04-27T06:54:04.390Z,11.30
2019-04-27T07:00:09.786Z,11.70
2019-04-27T07:06:14.410Z,11.90
2019-04-27T07:12:19.238Z,12.00
2019-04-27T07:18:23.767Z,12.30
2019-04-27T07:24:29.224Z,12.80
2019-04-27T07:30:33.991Z,13.10
2019-04-27T07:36:39.303Z,13.50
2019-04-27T07:42:45.928Z,14.00
2019-04-27T07:48:50.963Z,14.10
2019-04-27T07:54:55.872Z,13.90
2019-04-27T08:01:00.435Z,14.10
2019-04-27T08:07:05.081Z,14.60
2019-04-27T08:13:09.689Z,15.20
2019-04-27T08:19:14.331Z,15.60
2019-04-27T08:25:19.061Z,15.40
2019-04-27T08:31:25.376Z,15.70
2019-04-27T08:37:38.763Z,16.20
2019-04-27T08:43:43.329Z,16.00
2019-04-27T08:49:49.180Z,15.60
2019-04-27T08:55:53.929Z,16.10
2019-04-27T09:01:58.794Z,16.90
2019-04-27T09:08:18.947Z,17.50
2019-04-27T09:14:37.133Z,17.30
2019-04-27T09:20:49.247Z,17.00
2019-04-27T09:26:53.791Z,16.70
2019-04-27T09:32:58.671Z,17.50
2019-04-27T09:39:03.288Z,17.60
2019-04-27T09:45:09.053Z,17.50
2019-04-27T09:51:13.625Z,17.20
2019-04-27T09:57:18.184Z,17.10
2019-04-27T10:03:22.816Z,17.00
2019-04-27T10:09:29.636Z,16.30
2019-04-27T10:15:35.546Z,15.60
2019-04-27T10:21:39.993Z,16.60
2019-04-27T10:27:46.183Z,18.50
2019-04-27T10:33:50.742Z,20.20
2019-04-27T10:39:56.061Z,20.20
2019-04-27T10:46:00.837Z,18.60
2019-04-27T10:52:06.068Z,18.40
2019-04-27T10:58:10.632Z,18.20
2019-04-27T11:04:19.573Z,18.00
2019-04-27T11:10:25.897Z,19.50
2019-04-27T11:16:30.669Z,19.90
2019-04-27T11:22:36.304Z,18.50
2019-04-27T11:28:42.731Z,17.40
2019-04-27T11:35:05.820Z,16.50
2019-04-27T11:41:10.517Z,15.50
2019-04-27T11:47:16.230Z,15.20
2019-04-27T11:53:23.194Z,15.50
2019-04-27T11:59:27.279Z,16.00
2019-04-27T12:05:32.109Z,16.30
2019-04-27T12:11:36.730Z,16.20
2019-04-27T12:17:41.346Z,16.30
2019-04-27T12:23:47.247Z,16.10
2019-04-27T12:30:06.245Z,15.50
2019-04-27T12:36:11.073Z,15.20
2019-04-27T12:42:16.070Z,15.30
2019-04-27T12:48:20.869Z,15.60
2019-04-27T12:54:27.073Z,16.20
2019-04-27T13:00:39.706Z,17.40
2019-04-27T13:06:44.342Z,17.10
2019-04-27T13:12:48.954Z,15.70
2019-04-27T13:18:53.592Z,15.20
2019-04-27T13:24:58.512Z,15.00
2019-04-27T13:31:03.085Z,14.70
2019-04-27T13:37:09.262Z,14.40
2019-04-27T13:43:21.447Z,14.40
2019-04-27T13:49:43.944Z,14.10
2019-04-27T13:55:48.627Z,14.00
2019-04-27T14:01:53.228Z,14.10
2019-04-27T14:07:59.149Z,14.10
2019-04-27T14:14:03.905Z,13.80
2019-04-27T14:20:09.713Z,13.40
2019-04-27T14:26:14.367Z,13.20
2019-04-27T14:32:19.000Z,13.30
2019-04-27T14:38:23.565Z,13.20
2019-04-27T14:44:29.276Z,13.10
2019-04-27T14:50:33.828Z,13.10
2019-04-27T14:56:38.840Z,13.20
2019-04-27T15:02:43.458Z,13.30
2019-04-27T15:08:49.225Z,13.20
2019-04-27T15:14:57.276Z,13.20
2019-04-27T15:21:02.586Z,13.60
2019-04-27T15:27:08.259Z,14.00
2019-04-27T15:33:30.535Z,14.10
2019-04-27T15:39:52.772Z,14.00
2019-04-27T15:45:58.612Z,13.80
2019-04-27T15:52:04.657Z,13.70
2019-04-27T15:58:09.787Z,12.80
2019-04-27T16:04:14.559Z,11.10
2019-04-27T16:10:20.108Z,10.20
2019-04-27T16:16:29.215Z,9.50
2019-04-27T16:22:31.601Z,9.20
2019-04-27T16:28:36.148Z,9.00
2019-04-27T16:34:41.319Z,9.00
2019-04-27T16:40:46.007Z,9.00
2019-04-27T16:46:50.642Z,9.10
2019-04-27T16:59:20.724Z,9.70
2019-04-27T17:05:08.503Z,9.80
2019-04-27T17:11:13.866Z,9.90
2019-04-27T17:12:40.067Z,9.40
2019-04-27T17:17:20.135Z,9.90
2019-04-27T17:23:31.199Z,10.10
2019-04-27T17:29:35.791Z,10.20
2019-04-27T17:35:42.675Z,10.30
2019-04-27T17:41:50.576Z,10.20
2019-04-27T17:47:53.001Z,10.10
2019-04-27T17:53:58.599Z,10.10
2019-04-27T18:00:05.324Z,10.00
2019-04-27T18:06:09.939Z,9.90
2019-04-27T18:12:15.798Z,9.90
2019-04-27T18:18:22.806Z,9.80
2019-04-27T18:24:30.282Z,9.70
2019-04-27T18:30:52.927Z,9.80
2019-04-27T18:36:57.470Z,9.80
2019-04-27T18:43:05.942Z,9.80
2019-04-27T18:49:22.618Z,9.50
2019-04-27T18:55:28.977Z,9.30
2019-04-27T19:01:33.626Z,9.30
2019-04-27T19:07:38.353Z,9.30
2019-04-27T19:13:42.863Z,9.30
2019-04-27T19:19:47.440Z,9.20
2019-04-27T19:26:08.643Z,9.10
2019-04-27T19:32:13.188Z,9.00
2019-04-27T19:38:18.572Z,8.80
2019-04-27T19:44:23.456Z,8.80
2019-04-27T19:50:28.627Z,8.80
2019-04-27T19:56:33.233Z,8.80
2019-04-27T20:02:38.250Z,8.80
2019-04-27T20:08:48.957Z,8.90
2019-04-27T20:14:56.635Z,8.90
2019-04-27T20:21:01.184Z,9.00
2019-04-27T20:27:05.728Z,9.00
2019-04-27T20:33:11.033Z,8.90
2019-04-27T20:39:15.781Z,9.00
2019-04-27T20:45:20.388Z,8.90
2019-04-27T20:51:31.020Z,8.90
2019-04-27T20:57:35.781Z,8.90
2019-04-27T21:03:41.935Z,8.80
2019-04-27T21:09:46.470Z,8.80
2019-04-27T21:15:51.064Z,8.70
2019-04-27T21:21:55.640Z,8.80
2019-04-27T21:28:14.923Z,8.80
2019-04-27T21:34:06.458Z,8.80
2019-04-27T21:40:13.658Z,8.80
2019-04-27T21:46:18.218Z,8.70
2019-04-27T21:52:27.350Z,8.70
2019-04-27T21:58:33.380Z,8.70
2019-04-27T22:04:38.694Z,8.80
2019-04-27T22:10:43.235Z,8.80
2019-04-27T22:16:47.771Z,8.80
2019-04-27T22:23:09.230Z,8.80
2019-04-27T22:29:13.780Z,8.80
2019-04-27T22:35:18.471Z,8.80
2019-04-27T22:41:24.723Z,8.70
2019-04-27T22:47:29.353Z,8.80
2019-04-27T22:53:33.969Z,8.70
2019-04-27T22:59:42.941Z,8.70
2019-04-27T23:05:47.614Z,8.60
2019-04-27T23:11:52.235Z,8.60
2019-04-27T23:17:57.481Z,8.60
2019-04-27T23:24:02.048Z,8.60
2019-04-27T23:30:08.564Z,8.50
2019-04-27T23:36:13.117Z,8.50
2019-04-27T23:42:17.746Z,8.50
2019-04-27T23:48:22.990Z,8.40
2019-04-27T23:54:28.564Z,8.40
